Time;durP1;ratioP1;P1;durP2;ratioP2;P2;SDS_P1;SDS_P2;PMS_P1;PMS_P2;Temp;Humidity;BMP_temperature;BMP_pressure;BME280_temperature;BME280_humidity;BME280_pressure;Samples;Min_cycle;Max_cycle;Signal;HPM_P1;HPM_P2
2021/03/21 00:01:32;;;;;;;4.17;3.10;;;;;;;;;;4439807;32;20167;-71
2021/03/21 00:03:57;;;;;;;4.37;2.93;;;;;;;;;;4453013;32;20163;-71
2021/03/21 00:06:22;;;;;;;4.23;3.13;;;;;;;;;;4453837;32;20180;-71
2021/03/21 00:08:47;;;;;;;5.60;3.23;;;;;;;;;;4452153;32;20140;-70
2021/03/21 00:11:13;;;;;;;7.77;3.83;;;;;;;;;;4438128;32;20257;-71
2021/03/21 00:13:38;;;;;;;6.07;3.67;;;;;;;;;;4452889;32;20145;-72
2021/03/21 00:16:04;;;;;;;6.10;3.77;;;;;;;;;;4451919;32;20189;-72
2021/03/21 00:18:32;;;;;;;7.50;4.07;;;;;;;;;;4453470;32;20137;-72
2021/03/21 00:20:58;;;;;;;9.07;5.20;;;;;;;;;;4451970;32;20141;-73
2021/03/21 00:23:23;;;;;;;8.60;5.63;;;;;;;;;;4451777;32;20608;-71
2021/03/21 00:25:48;;;;;;;9.03;6.00;;;;;;;;;;4453229;32;20140;-70
2021/03/21 00:28:15;;;;;;;8.23;6.00;;;;;;;;;;4453689;32;20465;-70
2021/03/21 00:30:42;;;;;;;11.20;5.90;;;;;;;;;;4452642;32;20192;-72
2021/03/21 00:33:08;;;;;;;12.93;7.50;;;;;;;;;;4452066;32;20238;-74
2021/03/21 00:35:33;;;;;;;11.97;7.77;;;;;;;;;;4438212;32;20573;-73
2021/03/21 00:38:02;;;;;;;14.37;8.93;;;;;;;;;;4439239;32;20161;-73
2021/03/21 00:40:28;;;;;;;16.30;9.80;;;;;;;;;;4451313;32;20175;-74
2021/03/21 00:42:54;;;;;;;15.50;10.10;;;;;;;;;;4438179;32;20552;-74
2021/03/21 00:45:21;;;;;;;16.40;10.77;;;;;;;;;;4451422;32;20141;-74
2021/03/21 00:47:46;;;;;;;19.30;12.70;;;;;;;;;;4452053;32;20231;-74
2021/03/21 00:50:14;;;;;;;20.80;13.60;;;;;;;;;;4437764;32;20180;-74
2021/03/21 00:52:40;;;;;;;23.70;15.87;;;;;;;;;;4452787;32;20156;-74
2021/03/21 00:55:05;;;;;;;21.40;12.93;;;;;;;;;;4452050;32;20533;-75
2021/03/21 00:57:30;;;;;;;23.87;15.47;;;;;;;;;;4437893;32;20164;-76
2021/03/21 00:59:56;;;;;;;21.43;13.60;;;;;;;;;;4453325;32;20134;-77
2021/03/21 01:02:21;;;;;;;22.70;14.33;;;;;;;;;;4451614;32;20473;-76
2021/03/21 01:04:47;;;;;;;25.50;16.13;;;;;;;;;;4437675;32;20221;-75
2021/03/21 01:07:12;;;;;;;26.20;16.60;;;;;;;;;;4437529;32;20543;-76
2021/03/21 01:09:37;;;;;;;24.07;15.97;;;;;;;;;;4437271;32;20654;-75
2021/03/21 01:12:02;;;;;;;30.10;18.13;;;;;;;;;;4451748;32;20572;-76
2021/03/21 01:14:27;;;;;;;24.43;14.27;;;;;;;;;;4437388;32;20161;-75
2021/03/21 01:16:53;;;;;;;24.57;13.80;;;;;;;;;;4451228;32;20617;-76
2021/03/21 01:19:19;;;;;;;22.50;14.80;;;;;;;;;;4437095;32;20161;-74
2021/03/21 01:21:45;;;;;;;20.67;13.47;;;;;;;;;;4451169;32;20168;-74
2021/03/21 01:24:11;;;;;;;23.07;14.10;;;;;;;;;;4437088;32;20156;-74
2021/03/21 01:26:36;;;;;;;25.73;14.07;;;;;;;;;;4437077;32;20184;-75
2021/03/21 01:29:02;;;;;;;20.90;13.90;;;;;;;;;;4438232;32;20173;-75
2021/03/21 01:31:27;;;;;;;22.63;14.33;;;;;;;;;;4452430;32;20426;-76
2021/03/21 01:33:53;;;;;;;18.80;12.37;;;;;;;;;;4450886;32;20184;-76
2021/03/21 01:36:30;;;;;;;21.90;13.80;;;;;;;;;;4437072;32;20165;-76
2021/03/21 01:38:56;;;;;;;19.27;11.77;;;;;;;;;;4451298;32;20569;-76
2021/03/21 01:41:24;;;;;;;20.60;12.60;;;;;;;;;;4451677;32;20133;-76
2021/03/21 01:43:49;;;;;;;22.13;12.20;;;;;;;;;;4450949;32;20508;-76
2021/03/21 01:46:18;;;;;;;18.57;11.00;;;;;;;;;;4436625;32;20195;-75
2021/03/21 01:48:46;;;;;;;18.07;11.70;;;;;;;;;;4451089;32;20218;-74
2021/03/21 01:51:17;;;;;;;21.57;12.17;;;;;;;;;;4437089;32;20161;-74
2021/03/21 01:53:43;;;;;;;14.50;10.03;;;;;;;;;;4451989;32;20140;-74
2021/03/21 01:56:09;;;;;;;16.20;11.07;;;;;;;;;;4450571;32;20205;-74
2021/03/21 01:58:35;;;;;;;21.93;12.23;;;;;;;;;;4452675;32;20157;-74
2021/03/21 02:01:04;;;;;;;15.73;10.20;;;;;;;;;;4450915;32;20133;-74
2021/03/21 02:03:29;;;;;;;18.60;10.67;;;;;;;;;;4438017;32;20184;-73
2021/03/21 02:06:12;;;;;;;14.73;9.93;;;;;;;;;;4450526;32;20452;-74
2021/03/21 02:08:49;;;;;;;16.10;10.63;;;;;;;;;;4451303;32;20138;-74
2021/03/21 02:11:38;;;;;;;16.67;10.70;;;;;;;;;;4451251;32;20142;-74
2021/03/21 02:14:17;;;;;;;17.50;10.80;;;;;;;;;;4440659;32;20227;-74
2021/03/21 02:16:47;;;;;;;16.10;11.07;;;;;;;;;;4436675;32;20538;-74
2021/03/21 02:19:32;;;;;;;17.60;11.80;;;;;;;;;;4453409;32;20146;-73
2021/03/21 02:22:01;;;;;;;18.03;10.40;;;;;;;;;;4453623;32;20169;-73
2021/03/21 02:24:36;;;;;;;17.20;10.90;;;;;;;;;;4439674;32;20529;-75
2021/03/21 02:27:05;;;;;;;17.00;10.80;;;;;;;;;;4453585;32;20167;-73
2021/03/21 02:29:47;;;;;;;16.10;10.37;;;;;;;;;;4454552;32;20149;-73
2021/03/21 02:32:18;;;;;;;18.63;11.30;;;;;;;;;;4439483;32;20222;-74
2021/03/21 02:34:48;;;;;;;19.27;11.87;;;;;;;;;;4454656;32;20223;-73
2021/03/21 02:37:33;;;;;;;19.07;11.93;;;;;;;;;;4454864;32;20144;-73
2021/03/21 02:40:10;;;;;;;18.30;11.40;;;;;;;;;;4442854;32;20582;-73
2021/03/21 02:42:39;;;;;;;21.37;12.07;;;;;;;;;;4439392;32;20161;-73
2021/03/21 02:45:09;;;;;;;20.67;12.27;;;;;;;;;;4453866;32;20549;-74
2021/03/21 02:47:34;;;;;;;19.37;12.07;;;;;;;;;;4453778;32;20219;-74
2021/03/21 02:50:02;;;;;;;21.70;12.03;;;;;;;;;;4453404;32;20160;-72
2021/03/21 02:52:36;;;;;;;23.00;13.27;;;;;;;;;;4439802;32;20569;-73
2021/03/21 02:55:07;;;;;;;25.70;12.67;;;;;;;;;;4453221;32;20137;-74
2021/03/21 02:57:40;;;;;;;22.63;12.90;;;;;;;;;;4453318;32;20129;-75
2021/03/21 03:00:08;;;;;;;23.20;13.17;;;;;;;;;;4453794;32;20159;-73
2021/03/21 03:02:37;;;;;;;19.93;11.97;;;;;;;;;;4454440;32;20173;-73
2021/03/21 03:05:08;;;;;;;22.07;12.97;;;;;;;;;;4439117;32;20592;-72
2021/03/21 03:07:36;;;;;;;23.20;13.37;;;;;;;;;;4453301;32;20180;-72
2021/03/21 03:10:06;;;;;;;23.87;14.13;;;;;;;;;;4454163;32;20254;-72
2021/03/21 03:12:33;;;;;;;24.70;13.93;;;;;;;;;;4454067;32;20617;-71
2021/03/21 03:14:58;;;;;;;24.37;13.67;;;;;;;;;;4452829;32;20140;-71
2021/03/21 03:17:24;;;;;;;31.13;14.63;;;;;;;;;;4439354;32;20195;-72
2021/03/21 03:20:08;;;;;;;30.63;14.83;;;;;;;;;;4438699;32;20176;-72
2021/03/21 03:22:42;;;;;;;27.40;14.57;;;;;;;;;;4439058;32;20713;-73
2021/03/21 03:25:28;;;;;;;28.97;14.57;;;;;;;;;;4454084;32;20477;-73
2021/03/21 03:28:18;;;;;;;36.20;14.97;;;;;;;;;;4452862;32;20542;-73
2021/03/21 03:30:57;;;;;;;34.67;15.27;;;;;;;;;;4453770;32;20545;-72
2021/03/21 03:33:23;;;;;;;40.67;16.63;;;;;;;;;;4453316;32;20141;-73
2021/03/21 03:35:48;;;;;;;39.90;17.00;;;;;;;;;;4435116;32;20187;-72
2021/03/21 03:38:13;;;;;;;40.43;17.30;;;;;;;;;;4436860;32;20168;-72
2021/03/21 03:40:40;;;;;;;42.50;18.03;;;;;;;;;;4438405;32;20169;-72
2021/03/21 03:43:24;;;;;;;39.17;17.90;;;;;;;;;;4452944;32;20152;-74
2021/03/21 03:45:49;;;;;;;37.93;17.33;;;;;;;;;;4452261;32;20148;-74
2021/03/21 03:48:28;;;;;;;44.60;18.50;;;;;;;;;;4452437;32;20588;-72
2021/03/21 03:50:57;;;;;;;43.87;18.17;;;;;;;;;;4453122;32;20188;-72
2021/03/21 03:53:28;;;;;;;41.87;17.17;;;;;;;;;;4453642;32;20132;-73
2021/03/21 03:55:57;;;;;;;43.23;19.20;;;;;;;;;;4453698;32;20172;-73
2021/03/21 03:58:45;;;;;;;35.17;16.23;;;;;;;;;;4453692;32;20138;-73
2021/03/21 04:01:12;;;;;;;35.07;17.67;;;;;;;;;;4402620;32;20165;-72
2021/03/21 04:03:40;;;;;;;32.13;15.03;;;;;;;;;;4452111;32;20205;-73
2021/03/21 04:06:09;;;;;;;31.70;15.37;;;;;;;;;;4440112;32;20188;-72
2021/03/21 04:08:42;;;;;;;24.73;12.87;;;;;;;;;;4452298;32;20138;-72
2021/03/21 04:11:13;;;;;;;21.20;10.47;;;;;;;;;;4438262;32;20169;-71
2021/03/21 04:13:44;;;;;;;24.77;10.50;;;;;;;;;;4452187;32;20196;-70
2021/03/21 04:16:17;;;;;;;14.57;7.40;;;;;;;;;;4452503;32;20472;-72
2021/03/21 04:18:48;;;;;;;17.40;7.80;;;;;;;;;;4437806;32;20506;-71
2021/03/21 04:21:16;;;;;;;15.30;7.00;;;;;;;;;;4451977;32;20593;-72
2021/03/21 04:23:47;;;;;;;16.27;6.60;;;;;;;;;;4453098;32;20159;-72
2021/03/21 04:26:14;;;;;;;14.10;6.27;;;;;;;;;;4438938;32;20221;-71
2021/03/21 04:28:44;;;;;;;15.73;6.77;;;;;;;;;;4453287;32;20129;-71
2021/03/21 04:31:11;;;;;;;15.77;6.47;;;;;;;;;;4452525;32;20137;-72
2021/03/21 04:33:40;;;;;;;14.07;6.77;;;;;;;;;;4451367;32;20212;-71
2021/03/21 04:36:11;;;;;;;19.27;6.60;;;;;;;;;;4437730;32;20164;-71
2021/03/21 04:38:39;;;;;;;12.07;5.30;;;;;;;;;;4452080;32;20137;-73
2021/03/21 04:41:07;;;;;;;10.07;4.60;;;;;;;;;;4437372;32;20501;-70
2021/03/21 04:43:51;;;;;;;12.20;5.17;;;;;;;;;;4453448;32;20197;-72
2021/03/21 04:46:18;;;;;;;8.93;4.00;;;;;;;;;;4452864;32;20208;-72
2021/03/21 04:48:43;;;;;;;12.97;4.20;;;;;;;;;;4451153;32;20329;-72
2021/03/21 04:51:12;;;;;;;9.53;3.77;;;;;;;;;;4437896;32;20230;-73
2021/03/21 04:53:41;;;;;;;12.33;3.17;;;;;;;;;;4452404;32;20164;-72
2021/03/21 04:56:19;;;;;;;8.10;2.93;;;;;;;;;;4452402;32;20137;-72
2021/03/21 04:58:48;;;;;;;11.57;2.40;;;;;;;;;;4437188;32;20211;-71
2021/03/21 05:01:16;;;;;;;6.57;2.50;;;;;;;;;;4437043;32;20157;-73
2021/03/21 05:03:43;;;;;;;8.17;2.40;;;;;;;;;;4452034;32;20140;-71
2021/03/21 05:06:31;;;;;;;8.73;2.50;;;;;;;;;;4437653;32;20199;-71
2021/03/21 05:08:59;;;;;;;7.67;2.10;;;;;;;;;;4418275;32;20522;-71
2021/03/21 05:11:38;;;;;;;8.17;2.23;;;;;;;;;;4451412;32;20137;-72
2021/03/21 05:14:06;;;;;;;8.67;1.90;;;;;;;;;;4451860;32;20235;-70
2021/03/21 05:16:39;;;;;;;6.47;1.87;;;;;;;;;;4452546;32;20165;-72
2021/03/21 05:19:05;;;;;;;9.23;1.90;;;;;;;;;;4437029;32;20165;-72
2021/03/21 05:21:36;;;;;;;5.00;2.00;;;;;;;;;;4450827;32;20160;-69
2021/03/21 05:24:01;;;;;;;8.60;2.17;;;;;;;;;;4452095;32;20300;-71
2021/03/21 05:26:29;;;;;;;6.13;2.00;;;;;;;;;;4451696;32;20196;-71
2021/03/21 05:28:59;;;;;;;8.03;2.10;;;;;;;;;;4438368;32;20228;-71
2021/03/21 05:31:25;;;;;;;9.40;2.17;;;;;;;;;;4451570;32;20178;-71
2021/03/21 05:33:51;;;;;;;6.50;1.90;;;;;;;;;;4452298;32;20149;-71
2021/03/21 05:36:38;;;;;;;9.80;2.00;;;;;;;;;;4450660;32;20472;-71
2021/03/21 05:39:11;;;;;;;11.47;2.00;;;;;;;;;;4451772;32;20173;-72
2021/03/21 05:41:37;;;;;;;11.33;2.60;;;;;;;;;;4451150;32;20148;-70
2021/03/21 05:44:17;;;;;;;10.63;2.43;;;;;;;;;;4450655;32;20202;-70
2021/03/21 05:46:45;;;;;;;9.40;2.50;;;;;;;;;;4452519;32;20262;-70
2021/03/21 05:49:19;;;;;;;11.23;2.50;;;;;;;;;;4450249;32;20216;-72
2021/03/21 05:51:58;;;;;;;8.17;2.53;;;;;;;;;;4451150;32;20555;-70
2021/03/21 05:54:35;;;;;;;13.50;2.40;;;;;;;;;;4450827;32;20164;-71
2021/03/21 05:57:06;;;;;;;11.50;2.43;;;;;;;;;;4451976;32;20155;-72
2021/03/21 05:59:50;;;;;;;9.43;2.00;;;;;;;;;;4450441;32;20498;-71
2021/03/21 06:02:26;;;;;;;8.10;2.13;;;;;;;;;;4450324;32;20133;-70
2021/03/21 06:05:10;;;;;;;7.10;2.10;;;;;;;;;;4451540;32;20160;-72
2021/03/21 06:07:54;;;;;;;9.00;2.10;;;;;;;;;;4450496;32;20163;-72
2021/03/21 06:10:29;;;;;;;11.50;2.83;;;;;;;;;;4436661;32;20203;-72
2021/03/21 06:13:03;;;;;;;10.43;2.10;;;;;;;;;;4436897;32;20286;-73
2021/03/21 06:15:39;;;;;;;9.17;2.30;;;;;;;;;;4438050;32;20184;-72
2021/03/21 06:18:31;;;;;;;7.80;2.00;;;;;;;;;;4450512;32;20168;-72
2021/03/21 06:20:59;;;;;;;11.97;2.27;;;;;;;;;;4427168;32;20224;-71
2021/03/21 06:23:27;;;;;;;11.20;2.40;;;;;;;;;;4450453;32;20176;-71
2021/03/21 06:25:53;;;;;;;12.20;2.43;;;;;;;;;;4451472;32;20145;-70
2021/03/21 06:28:33;;;;;;;12.40;2.63;;;;;;;;;;4450284;32;20133;-73
2021/03/21 06:31:04;;;;;;;11.57;2.60;;;;;;;;;;4451499;32;20156;-70
2021/03/21 06:33:32;;;;;;;9.37;2.37;;;;;;;;;;4450221;32;20576;-72
2021/03/21 06:36:02;;;;;;;13.13;2.73;;;;;;;;;;4436029;32;20161;-69
2021/03/21 06:38:45;;;;;;;12.97;2.40;;;;;;;;;;4450293;32;20189;-71
2021/03/21 06:41:12;;;;;;;9.93;2.80;;;;;;;;;;4435992;32;20157;-70
2021/03/21 06:43:45;;;;;;;13.03;2.80;;;;;;;;;;4436060;32;20161;-72
2021/03/21 06:46:13;;;;;;;16.03;2.80;;;;;;;;;;4450737;32;20431;-70
2021/03/21 06:48:47;;;;;;;11.60;2.43;;;;;;;;;;4450154;32;20191;-72
2021/03/21 06:51:28;;;;;;;14.30;3.10;;;;;;;;;;4450145;32;20143;-73
2021/03/21 06:53:56;;;;;;;14.37;2.80;;;;;;;;;;4451849;32;20176;-71
2021/03/21 06:56:37;;;;;;;20.17;2.90;;;;;;;;;;4435924;32;20288;-71
2021/03/21 06:59:09;;;;;;;16.20;3.00;;;;;;;;;;4436072;32;20240;-71
2021/03/21 07:01:45;;;;;;;14.60;2.70;;;;;;;;;;4436712;32;20156;-72
2021/03/21 07:04:10;;;;;;;15.27;2.17;;;;;;;;;;4451976;32;20201;-71
2021/03/21 07:06:57;;;;;;;18.33;3.07;;;;;;;;;;4451518;32;20496;-72
2021/03/21 07:09:47;;;;;;;12.00;2.30;;;;;;;;;;4439018;32;20157;-71
2021/03/21 07:12:34;;;;;;;17.63;2.83;;;;;;;;;;4455025;32;20141;-73
2021/03/21 07:15:02;;;;;;;13.87;2.53;;;;;;;;;;4454755;32;20136;-72
2021/03/21 07:17:36;;;;;;;13.77;2.10;;;;;;;;;;4453011;32;20134;-73
2021/03/21 07:20:20;;;;;;;9.00;2.13;;;;;;;;;;4453324;32;20137;-71
2021/03/21 07:23:03;;;;;;;8.93;2.10;;;;;;;;;;4454206;32;20528;-72
2021/03/21 07:25:39;;;;;;;9.20;1.70;;;;;;;;;;4454176;32;20140;-73
2021/03/21 07:28:14;;;;;;;11.83;2.20;;;;;;;;;;4454654;32;20160;-72
2021/03/21 07:30:51;;;;;;;9.77;1.57;;;;;;;;;;4438522;32;20165;-71
2021/03/21 07:33:34;;;;;;;9.90;1.80;;;;;;;;;;4447181;32;20161;-71
2021/03/21 07:36:13;;;;;;;13.83;1.97;;;;;;;;;;4423343;32;20161;-71
2021/03/21 07:38:44;;;;;;;12.93;2.00;;;;;;;;;;4423375;32;20565;-72
2021/03/21 07:41:10;;;;;;;11.80;2.20;;;;;;;;;;4423810;32;20157;-71
2021/03/21 07:43:42;;;;;;;9.00;1.90;;;;;;;;;;4422865;32;20187;-72
2021/03/21 07:46:14;;;;;;;11.90;2.00;;;;;;;;;;4424467;32;20263;-71
2021/03/21 07:48:45;;;;;;;6.03;1.40;;;;;;;;;;4424593;32;20585;-73
2021/03/21 07:51:17;;;;;;;9.70;2.00;;;;;;;;;;4423303;32;20479;-71
2021/03/21 07:53:50;;;;;;;11.13;2.13;;;;;;;;;;4422838;32;20168;-71
2021/03/21 07:56:18;;;;;;;10.53;1.93;;;;;;;;;;4437077;32;20569;-72
2021/03/21 07:58:43;;;;;;;12.27;2.00;;;;;;;;;;4436495;32;20142;-72
2021/03/21 08:01:08;;;;;;;13.03;2.63;;;;;;;;;;4422482;32;20196;-70
2021/03/21 08:03:42;;;;;;;13.10;2.10;;;;;;;;;;4436828;32;20286;-72
2021/03/21 08:06:12;;;;;;;11.80;2.20;;;;;;;;;;4436756;32;20503;-69
2021/03/21 08:08:39;;;;;;;16.43;2.40;;;;;;;;;;4436749;32;20207;-72
2021/03/21 08:11:06;;;;;;;5.03;1.53;;;;;;;;;;4432356;32;20208;-72
2021/03/21 08:13:45;;;;;;;8.73;2.00;;;;;;;;;;4438334;32;20165;-70
2021/03/21 08:16:13;;;;;;;20.70;2.20;;;;;;;;;;4452813;32;20156;-71
2021/03/21 08:18:38;;;;;;;13.50;2.07;;;;;;;;;;4437691;32;20181;-71
2021/03/21 08:21:12;;;;;;;9.53;1.87;;;;;;;;;;4437458;32;20285;-73
2021/03/21 08:23:41;;;;;;;10.10;2.20;;;;;;;;;;4451813;32;20231;-71
2021/03/21 08:26:08;;;;;;;9.80;2.13;;;;;;;;;;4433084;32;20216;-72
2021/03/21 08:28:37;;;;;;;15.70;2.50;;;;;;;;;;4437131;32;20206;-73
2021/03/21 08:31:07;;;;;;;11.97;1.97;;;;;;;;;;4422099;32;20184;-71
2021/03/21 08:33:34;;;;;;;13.60;2.67;;;;;;;;;;4444695;32;20179;-72
2021/03/21 08:36:18;;;;;;;14.23;2.27;;;;;;;;;;4451857;32;20148;-71
2021/03/21 08:38:55;;;;;;;16.57;2.13;;;;;;;;;;4437682;32;20232;-71
2021/03/21 08:41:21;;;;;;;13.03;1.70;;;;;;;;;;4451739;32;20136;-71
2021/03/21 08:43:55;;;;;;;10.80;2.80;;;;;;;;;;4451276;32;20470;-73
2021/03/21 08:46:22;;;;;;;10.37;2.10;;;;;;;;;;4453022;32;20141;-72
2021/03/21 08:48:58;;;;;;;16.17;2.30;;;;;;;;;;4438494;32;20230;-71
2021/03/21 08:51:28;;;;;;;17.63;2.40;;;;;;;;;;4438941;32;20203;-72
2021/03/21 08:53:58;;;;;;;10.57;1.90;;;;;;;;;;4451399;32;20233;-71
2021/03/21 08:56:29;;;;;;;14.43;2.17;;;;;;;;;;4450735;32;20469;-71
2021/03/21 08:59:19;;;;;;;12.23;2.23;;;;;;;;;;4452250;32;20304;-72
2021/03/21 09:01:54;;;;;;;15.23;2.63;;;;;;;;;;4438436;32;20283;-73
2021/03/21 09:04:24;;;;;;;12.50;2.53;;;;;;;;;;4436977;32;20211;-72
2021/03/21 09:06:49;;;;;;;17.07;2.80;;;;;;;;;;4448555;32;20610;-72
2021/03/21 09:09:20;;;;;;;18.57;3.37;;;;;;;;;;4452409;32;20134;-72
2021/03/21 09:11:51;;;;;;;18.70;3.20;;;;;;;;;;4451276;32;20538;-79
2021/03/21 09:14:35;;;;;;;22.90;2.90;;;;;;;;;;4437558;32;20164;-79
2021/03/21 09:17:19;;;;;;;15.47;2.37;;;;;;;;;;4437102;32;20180;-76
2021/03/21 09:19:45;;;;;;;16.57;2.87;;;;;;;;;;4436772;32;20207;-78
2021/03/21 09:22:12;;;;;;;19.27;2.90;;;;;;;;;;4437360;32;20688;-79
2021/03/21 09:24:40;;;;;;;16.03;2.87;;;;;;;;;;4438298;32;20218;-77
2021/03/21 09:27:19;;;;;;;16.87;2.78;;;;;;;;;;4437216;32;20199;-77
2021/03/21 09:29:45;;;;;;;20.62;2.87;;;;;;;;;;4450833;32;20176;-79
2021/03/21 09:32:19;;;;;;;21.23;2.90;;;;;;;;;;4432960;32;20523;-75
2021/03/21 09:34:51;;;;;;;23.90;3.43;;;;;;;;;;4445921;32;20204;-77
2021/03/21 09:37:21;;;;;;;26.73;3.13;;;;;;;;;;4446063;32;20150;-78
2021/03/21 09:39:55;;;;;;;24.07;3.77;;;;;;;;;;4436310;32;20199;-77
2021/03/21 09:42:21;;;;;;;18.73;4.00;;;;;;;;;;4435045;32;20286;-76
2021/03/21 09:44:46;;;;;;;23.77;3.57;;;;;;;;;;4451106;32;20542;-76
2021/03/21 09:47:15;;;;;;;17.77;2.80;;;;;;;;;;4449582;32;20164;-77
2021/03/21 09:49:55;;;;;;;22.97;3.43;;;;;;;;;;4450662;32;20157;-75
2021/03/21 09:52:27;;;;;;;21.20;3.13;;;;;;;;;;4450257;32;20164;-77
2021/03/21 09:54:55;;;;;;;21.47;3.17;;;;;;;;;;4450191;32;20553;-77
2021/03/21 09:57:23;;;;;;;18.13;3.07;;;;;;;;;;4449879;32;20225;-75
2021/03/21 09:59:56;;;;;;;22.23;3.00;;;;;;;;;;4436835;32;20169;-75
2021/03/21 10:02:42;;;;;;;14.13;2.57;;;;;;;;;;4436229;32;20262;-75
2021/03/21 10:05:26;;;;;;;17.05;2.90;;;;;;;;;;4436697;32;20485;-76
2021/03/21 10:07:54;;;;;;;19.67;3.10;;;;;;;;;;4420943;32;20234;-74
2021/03/21 10:10:25;;;;;;;15.27;4.10;;;;;;;;;;4434961;32;20145;-74
2021/03/21 10:12:50;;;;;;;19.33;4.27;;;;;;;;;;4435792;32;20604;-78
2021/03/21 10:15:18;;;;;;;22.40;3.47;;;;;;;;;;4435849;32;20184;-76
2021/03/21 10:17:44;;;;;;;16.08;2.72;;;;;;;;;;4444947;32;20149;-75
2021/03/21 10:20:11;;;;;;;16.52;2.78;;;;;;;;;;4450493;32;20466;-78
2021/03/21 10:22:39;;;;;;;24.00;3.50;;;;;;;;;;4450496;32;20576;-75
2021/03/21 10:25:10;;;;;;;17.40;3.28;;;;;;;;;;4450505;32;20237;-75
2021/03/21 10:27:39;;;;;;;12.80;2.35;;;;;;;;;;4435546;32;20164;-77
2021/03/21 10:30:13;;;;;;;17.37;3.13;;;;;;;;;;4436604;32;20268;-78
2021/03/21 10:32:59;;;;;;;29.00;3.75;;;;;;;;;;4436181;32;20161;-74
2021/03/21 10:35:24;;;;;;;16.47;3.27;;;;;;;;;;4410250;32;20268;-74
2021/03/21 10:37:55;;;;;;;17.60;2.87;;;;;;;;;;4435755;32;20608;-78
2021/03/21 10:40:23;;;;;;;21.02;3.30;;;;;;;;;;4452300;32;20301;-78
2021/03/21 10:42:54;;;;;;;22.27;3.30;;;;;;;;;;4439003;32;20577;-77
2021/03/21 10:45:39;;;;;;;22.80;3.55;;;;;;;;;;4436691;32;20643;-78
2021/03/21 10:48:07;;;;;;;19.42;3.78;;;;;;;;;;4437180;32;20216;-76
2021/03/21 10:50:32;;;;;;;18.17;3.78;;;;;;;;;;4437386;32;20189;-79
2021/03/21 10:53:19;;;;;;;22.60;3.12;;;;;;;;;;4439225;32;20192;-76
2021/03/21 10:56:13;;;;;;;19.62;3.58;;;;;;;;;;4452741;32;20286;-78
2021/03/21 10:58:44;;;;;;;21.50;3.40;;;;;;;;;;4410422;32;20207;-75
2021/03/21 11:01:22;;;;;;;20.45;3.50;;;;;;;;;;4452769;32;20184;-77
2021/03/21 11:03:49;;;;;;;20.43;3.47;;;;;;;;;;4452618;32;20152;-75
2021/03/21 11:06:18;;;;;;;18.57;3.57;;;;;;;;;;4439704;32;20200;-74
2021/03/21 11:08:43;;;;;;;28.30;3.37;;;;;;;;;;4452666;32;20148;-79
2021/03/21 11:11:38;;;;;;;25.10;4.25;;;;;;;;;;4452568;32;20172;-76
2021/03/21 11:14:10;;;;;;;16.67;3.03;;;;;;;;;;4420897;32;20531;-78
2021/03/21 11:16:38;;;;;;;17.95;3.58;;;;;;;;;;4435767;32;20196;-74
2021/03/21 11:19:04;;;;;;;16.87;3.87;;;;;;;;;;4437028;32;20214;-77
2021/03/21 11:21:36;;;;;;;22.73;4.90;;;;;;;;;;4445906;32;20145;-75
2021/03/21 11:24:06;;;;;;;19.70;3.55;;;;;;;;;;4452642;32;20145;-77
2021/03/21 11:26:32;;;;;;;21.33;3.37;;;;;;;;;;4435843;32;20202;-74
2021/03/21 11:29:06;;;;;;;16.42;3.12;;;;;;;;;;4436725;32;20141;-76
2021/03/21 11:31:35;;;;;;;21.87;3.90;;;;;;;;;;4436685;32;20159;-74
2021/03/21 11:34:19;;;;;;;20.80;3.28;;;;;;;;;;4436973;32;20172;-76
2021/03/21 11:36:44;;;;;;;18.62;3.37;;;;;;;;;;4448726;32;20188;-77
2021/03/21 11:39:13;;;;;;;18.48;3.37;;;;;;;;;;4452475;32;20280;-76
2021/03/21 11:41:39;;;;;;;16.43;3.17;;;;;;;;;;4438189;32;20511;-77
2021/03/21 11:44:16;;;;;;;21.10;3.50;;;;;;;;;;4437835;32;20550;-68
2021/03/21 11:46:42;;;;;;;20.85;3.42;;;;;;;;;;4451878;32;20788;-69
2021/03/21 11:49:09;;;;;;;18.98;3.60;;;;;;;;;;4438047;32;20199;-77
2021/03/21 11:51:35;;;;;;;20.23;3.67;;;;;;;;;;4451770;32;20212;-71
2021/03/21 11:54:00;;;;;;;17.77;3.10;;;;;;;;;;4452080;32;20196;-74
2021/03/21 11:56:32;;;;;;;19.23;3.57;;;;;;;;;;4452321;32;20140;-73
2021/03/21 11:59:12;;;;;;;20.37;3.53;;;;;;;;;;4452075;32;20172;-72
2021/03/21 12:01:48;;;;;;;25.73;4.72;;;;;;;;;;4451976;32;20137;-71
2021/03/21 12:04:24;;;;;;;22.58;3.20;;;;;;;;;;4437796;32;20176;-73
2021/03/21 12:06:51;;;;;;;19.03;3.57;;;;;;;;;;4451285;32;20144;-73
2021/03/21 12:09:27;;;;;;;22.10;3.70;;;;;;;;;;4437254;32;20165;-73
2021/03/21 12:11:52;;;;;;;18.37;3.53;;;;;;;;;;4451543;32;20437;-73
2021/03/21 12:14:22;;;;;;;20.73;3.43;;;;;;;;;;4451621;32;20133;-71
2021/03/21 12:16:48;;;;;;;15.17;3.47;;;;;;;;;;4450606;32;20202;-74
2021/03/21 12:19:23;;;;;;;15.10;3.28;;;;;;;;;;4421990;32;20166;-75
2021/03/21 12:21:49;;;;;;;23.23;4.35;;;;;;;;;;4445459;32;20179;-73
2021/03/21 12:24:15;;;;;;;23.85;3.58;;;;;;;;;;4424508;32;20204;-71
2021/03/21 12:26:45;;;;;;;19.20;4.30;;;;;;;;;;4421793;32;20653;-72
2021/03/21 12:29:22;;;;;;;21.73;3.55;;;;;;;;;;4436001;32;20134;-69
2021/03/21 12:31:47;;;;;;;24.00;3.12;;;;;;;;;;4435764;32;20209;-73
2021/03/21 12:34:36;;;;;;;23.53;4.10;;;;;;;;;;4431397;32;20161;-75
2021/03/21 12:37:06;;;;;;;24.73;3.77;;;;;;;;;;4436125;32;20200;-71
2021/03/21 12:39:33;;;;;;;22.55;4.03;;;;;;;;;;4437154;32;20199;-73
2021/03/21 12:41:58;;;;;;;19.13;3.23;;;;;;;;;;4452256;32;20137;-77
2021/03/21 12:44:29;;;;;;;18.73;4.07;;;;;;;;;;4436655;32;20234;-70
2021/03/21 12:46:59;;;;;;;19.80;2.83;;;;;;;;;;4451282;32;20690;-71
2021/03/21 12:49:28;;;;;;;33.30;3.53;;;;;;;;;;4452828;32;20173;-67
2021/03/21 12:52:03;;;;;;;19.70;3.33;;;;;;;;;;4434863;32;20760;-66
2021/03/21 12:54:29;;;;;;;22.90;3.37;;;;;;;;;;4446886;32;20156;-69
2021/03/21 12:56:57;;;;;;;17.67;3.60;;;;;;;;;;4435515;32;20648;-69
2021/03/21 12:59:23;;;;;;;18.57;3.17;;;;;;;;;;4435370;32;20557;-71
2021/03/21 13:01:49;;;;;;;13.85;2.35;;;;;;;;;;4434830;32;20168;-72
2021/03/21 13:04:14;;;;;;;15.83;3.63;;;;;;;;;;4428742;32;20273;-70
2021/03/21 13:06:40;;;;;;;17.02;3.55;;;;;;;;;;4451216;32;20211;-68
2021/03/21 13:09:11;;;;;;;20.00;3.58;;;;;;;;;;4450396;32;20141;-74
2021/03/21 13:11:37;;;;;;;19.45;2.83;;;;;;;;;;4435406;32;20244;-68
2021/03/21 13:14:03;;;;;;;19.87;3.80;;;;;;;;;;4435955;32;20183;-73
2021/03/21 13:16:28;;;;;;;21.48;2.97;;;;;;;;;;4452173;32;20149;-71
2021/03/21 13:18:54;;;;;;;25.55;4.35;;;;;;;;;;4450173;32;20153;-68
2021/03/21 13:21:20;;;;;;;19.00;3.22;;;;;;;;;;4450893;32;20202;-68
2021/03/21 13:23:45;;;;;;;18.12;3.12;;;;;;;;;;4433814;32;20181;-69
2021/03/21 13:26:10;;;;;;;21.90;4.00;;;;;;;;;;4436130;32;20576;-73
2021/03/21 13:28:36;;;;;;;20.60;3.15;;;;;;;;;;4436896;32;20185;-71
2021/03/21 13:31:01;;;;;;;22.02;3.72;;;;;;;;;;4436524;32;20312;-72
2021/03/21 13:33:29;;;;;;;23.30;3.78;;;;;;;;;;4450856;32;20240;-72
2021/03/21 13:35:55;;;;;;;19.33;3.27;;;;;;;;;;4450795;32;20176;-73
2021/03/21 13:38:22;;;;;;;23.27;3.70;;;;;;;;;;4437288;32;20585;-72
2021/03/21 13:40:47;;;;;;;22.03;3.30;;;;;;;;;;4452121;32;20145;-73
2021/03/21 13:43:13;;;;;;;18.87;3.22;;;;;;;;;;4435974;32;20220;-71
2021/03/21 13:45:40;;;;;;;19.50;3.40;;;;;;;;;;4436407;32;20176;-69
2021/03/21 13:48:06;;;;;;;19.53;2.93;;;;;;;;;;4433780;32;20643;-71
2021/03/21 13:50:32;;;;;;;20.83;3.37;;;;;;;;;;4433759;32;20164;-70
2021/03/21 13:52:57;;;;;;;21.33;3.37;;;;;;;;;;4436276;32;20145;-74
2021/03/21 13:55:30;;;;;;;17.00;3.17;;;;;;;;;;4434987;32;20579;-70
2021/03/21 13:57:55;;;;;;;25.20;3.23;;;;;;;;;;4435199;32;20134;-70
2021/03/21 14:00:22;;;;;;;24.40;3.40;;;;;;;;;;4443781;32;20220;-70
2021/03/21 14:02:48;;;;;;;21.53;3.40;;;;;;;;;;4450503;32;20584;-70
2021/03/21 14:05:14;;;;;;;20.47;3.17;;;;;;;;;;4436038;32;20161;-70
2021/03/21 14:07:40;;;;;;;15.80;3.37;;;;;;;;;;4450105;32;20145;-70
2021/03/21 14:10:05;;;;;;;21.40;3.00;;;;;;;;;;4450289;32;20160;-73
2021/03/21 14:12:31;;;;;;;26.07;4.00;;;;;;;;;;4437202;32;20221;-72
2021/03/21 14:14:56;;;;;;;18.43;2.67;;;;;;;;;;4451698;32;20156;-72
2021/03/21 14:17:21;;;;;;;19.33;3.37;;;;;;;;;;4453506;32;20261;-69
2021/03/21 14:19:46;;;;;;;24.40;3.90;;;;;;;;;;4454513;32;20129;-70
2021/03/21 14:22:11;;;;;;;13.33;3.37;;;;;;;;;;4439528;32;20342;-73
2021/03/21 14:24:36;;;;;;;20.80;3.50;;;;;;;;;;4453048;32;20481;-70
2021/03/21 14:27:02;;;;;;;20.53;3.90;;;;;;;;;;4453197;32;20240;-68
2021/03/21 14:29:27;;;;;;;19.63;3.53;;;;;;;;;;4439053;32;20597;-74
2021/03/21 14:31:52;;;;;;;18.20;3.07;;;;;;;;;;4453772;32;20151;-71
2021/03/21 14:34:19;;;;;;;20.90;3.67;;;;;;;;;;4439119;32;20168;-69
2021/03/21 14:36:44;;;;;;;18.37;3.23;;;;;;;;;;4440089;32;20200;-71
2021/03/21 14:39:09;;;;;;;18.47;3.53;;;;;;;;;;4439024;32;20244;-70
2021/03/21 14:41:34;;;;;;;24.17;3.57;;;;;;;;;;4452912;32;20199;-67
2021/03/21 14:44:00;;;;;;;15.80;3.00;;;;;;;;;;4453288;32;20220;-74
2021/03/21 14:46:25;;;;;;;18.77;3.20;;;;;;;;;;4454884;32;20240;-72
2021/03/21 14:48:50;;;;;;;20.07;3.60;;;;;;;;;;4453299;32;20213;-69